sensor_id;sensor_type;location;lat;lon;timestamp;P1;durP1;ratioP1;P2;durP2;ratioP2
10825;SDS011;5466;55.898;14.094;2024-01-16T00:00:46;2.30;;;2.10;;
10825;SDS011;5466;55.898;14.094;2024-01-16T00:02:46;2.37;;;2.27;;
10825;SDS011;5466;55.898;14.094;2024-01-16T00:04:47;2.27;;;2.07;;
10825;SDS011;5466;55.898;14.094;2024-01-16T00:06:48;2.47;;;2.27;;
10825;SDS011;5466;55.898;14.094;2024-01-16T00:08:48;2.40;;;2.20;;
10825;SDS011;5466;55.898;14.094;2024-01-16T00:10:50;2.50;;;2.30;;
10825;SDS011;5466;55.898;14.094;2024-01-16T00:12:50;3.90;;;2.23;;
10825;SDS011;5466;55.898;14.094;2024-01-16T00:14:51;2.27;;;2.17;;
10825;SDS011;5466;55.898;14.094;2024-01-16T00:16:52;2.57;;;2.37;;
10825;SDS011;5466;55.898;14.094;2024-01-16T00:18:52;2.30;;;2.20;;
10825;SDS011;5466;55.898;14.094;2024-01-16T00:20:53;2.27;;;2.17;;
10825;SDS011;5466;55.898;14.094;2024-01-16T00:22:53;3.07;;;2.20;;
10825;SDS011;5466;55.898;14.094;2024-01-16T00:24:54;2.70;;;2.50;;
10825;SDS011;5466;55.898;14.094;2024-01-16T00:26:55;2.00;;;1.90;;
10825;SDS011;5466;55.898;14.094;2024-01-16T00:28:55;2.20;;;2.10;;
10825;SDS011;5466;55.898;14.094;2024-01-16T00:30:56;3.03;;;2.03;;
10825;SDS011;5466;55.898;14.094;2024-01-16T00:32:57;2.50;;;2.30;;
10825;SDS011;5466;55.898;14.094;2024-01-16T00:34:58;4.23;;;2.13;;
10825;SDS011;5466;55.898;14.094;2024-01-16T00:36:59;2.60;;;2.40;;
10825;SDS011;5466;55.898;14.094;2024-01-16T00:38:59;5.43;;;2.17;;
10825;SDS011;5466;55.898;14.094;2024-01-16T00:41:00;2.00;;;1.90;;
10825;SDS011;5466;55.898;14.094;2024-01-16T00:43:01;2.20;;;2.00;;
10825;SDS011;5466;55.898;14.094;2024-01-16T00:45:02;2.40;;;2.20;;
10825;SDS011;5466;55.898;14.094;2024-01-16T00:47:03;3.10;;;2.03;;
10825;SDS011;5466;55.898;14.094;2024-01-16T00:49:05;2.20;;;2.10;;
10825;SDS011;5466;55.898;14.094;2024-01-16T00:51:07;2.40;;;2.17;;
10825;SDS011;5466;55.898;14.094;2024-01-16T00:53:08;2.77;;;2.30;;
10825;SDS011;5466;55.898;14.094;2024-01-16T00:55:08;2.47;;;2.30;;
10825;SDS011;5466;55.898;14.094;2024-01-16T00:57:09;3.40;;;2.50;;
10825;SDS011;5466;55.898;14.094;2024-01-16T00:59:10;2.40;;;2.30;;
10825;SDS011;5466;55.898;14.094;2024-01-16T01:01:11;2.80;;;2.60;;
10825;SDS011;5466;55.898;14.094;2024-01-16T01:03:12;2.57;;;2.37;;
10825;SDS011;5466;55.898;14.094;2024-01-16T01:05:12;3.13;;;2.93;;
10825;SDS011;5466;55.898;14.094;2024-01-16T01:07:13;2.33;;;2.13;;
10825;SDS011;5466;55.898;14.094;2024-01-16T01:09:14;2.47;;;2.27;;
10825;SDS011;5466;55.898;14.094;2024-01-16T01:11:16;4.83;;;2.50;;
10825;SDS011;5466;55.898;14.094;2024-01-16T01:13:16;2.93;;;2.57;;
10825;SDS011;5466;55.898;14.094;2024-01-16T01:15:17;2.50;;;2.30;;
10825;SDS011;5466;55.898;14.094;2024-01-16T01:17:17;2.50;;;2.30;;
10825;SDS011;5466;55.898;14.094;2024-01-16T01:19:18;2.87;;;2.67;;
10825;SDS011;5466;55.898;14.094;2024-01-16T01:21:19;2.10;;;2.00;;
10825;SDS011;5466;55.898;14.094;2024-01-16T01:23:19;2.63;;;2.43;;
10825;SDS011;5466;55.898;14.094;2024-01-16T01:25:20;3.10;;;2.67;;
10825;SDS011;5466;55.898;14.094;2024-01-16T01:27:21;2.23;;;2.13;;
10825;SDS011;5466;55.898;14.094;2024-01-16T01:29:22;2.70;;;2.50;;
10825;SDS011;5466;55.898;14.094;2024-01-16T01:31:23;3.87;;;2.40;;
10825;SDS011;5466;55.898;14.094;2024-01-16T01:33:23;2.60;;;2.43;;
10825;SDS011;5466;55.898;14.094;2024-01-16T01:35:24;2.70;;;2.47;;
10825;SDS011;5466;55.898;14.094;2024-01-16T01:37:25;2.37;;;2.27;;
10825;SDS011;5466;55.898;14.094;2024-01-16T01:39:25;2.47;;;2.30;;
10825;SDS011;5466;55.898;14.094;2024-01-16T01:41:26;2.20;;;2.10;;
10825;SDS011;5466;55.898;14.094;2024-01-16T01:43:27;2.53;;;2.33;;
10825;SDS011;5466;55.898;14.094;2024-01-16T01:45:27;3.43;;;2.43;;
10825;SDS011;5466;55.898;14.094;2024-01-16T01:47:28;6.93;;;2.70;;
10825;SDS011;5466;55.898;14.094;2024-01-16T01:49:30;2.90;;;2.70;;
10825;SDS011;5466;55.898;14.094;2024-01-16T01:51:32;2.70;;;2.50;;
10825;SDS011;5466;55.898;14.094;2024-01-16T01:53:33;2.40;;;2.20;;
10825;SDS011;5466;55.898;14.094;2024-01-16T01:55:36;2.60;;;2.47;;
10825;SDS011;5466;55.898;14.094;2024-01-16T01:57:37;2.43;;;2.33;;
10825;SDS011;5466;55.898;14.094;2024-01-16T01:59:38;2.80;;;2.60;;
10825;SDS011;5466;55.898;14.094;2024-01-16T02:01:39;2.67;;;2.47;;
10825;SDS011;5466;55.898;14.094;2024-01-16T02:03:42;2.93;;;2.60;;
10825;SDS011;5466;55.898;14.094;2024-01-16T02:05:45;5.87;;;2.80;;
10825;SDS011;5466;55.898;14.094;2024-01-16T02:07:45;2.70;;;2.50;;
10825;SDS011;5466;55.898;14.094;2024-01-16T02:09:46;3.00;;;2.70;;
10825;SDS011;5466;55.898;14.094;2024-01-16T02:11:48;2.37;;;2.27;;
10825;SDS011;5466;55.898;14.094;2024-01-16T02:13:48;2.73;;;2.57;;
10825;SDS011;5466;55.898;14.094;2024-01-16T02:15:49;3.03;;;2.77;;
10825;SDS011;5466;55.898;14.094;2024-01-16T02:17:50;2.57;;;2.43;;
10825;SDS011;5466;55.898;14.094;2024-01-16T02:19:51;2.50;;;2.17;;
10825;SDS011;5466;55.898;14.094;2024-01-16T02:21:53;2.83;;;2.63;;
10825;SDS011;5466;55.898;14.094;2024-01-16T02:23:59;2.90;;;2.70;;
10825;SDS011;5466;55.898;14.094;2024-01-16T02:25:59;2.70;;;2.50;;
10825;SDS011;5466;55.898;14.094;2024-01-16T02:28:02;3.03;;;2.83;;
10825;SDS011;5466;55.898;14.094;2024-01-16T02:30:03;2.50;;;2.40;;
10825;SDS011;5466;55.898;14.094;2024-01-16T02:32:04;3.07;;;2.87;;
10825;SDS011;5466;55.898;14.094;2024-01-16T02:34:05;3.07;;;2.70;;
10825;SDS011;5466;55.898;14.094;2024-01-16T02:36:06;3.00;;;2.80;;
10825;SDS011;5466;55.898;14.094;2024-01-16T02:38:07;2.77;;;2.57;;
10825;SDS011;5466;55.898;14.094;2024-01-16T02:40:08;2.90;;;2.63;;
10825;SDS011;5466;55.898;14.094;2024-01-16T02:42:09;2.87;;;2.63;;
10825;SDS011;5466;55.898;14.094;2024-01-16T02:44:10;4.73;;;2.30;;
10825;SDS011;5466;55.898;14.094;2024-01-16T02:46:11;3.00;;;2.70;;
10825;SDS011;5466;55.898;14.094;2024-01-16T02:48:12;2.80;;;2.60;;
10825;SDS011;5466;55.898;14.094;2024-01-16T02:50:13;3.10;;;2.90;;
10825;SDS011;5466;55.898;14.094;2024-01-16T02:52:14;2.90;;;2.70;;
10825;SDS011;5466;55.898;14.094;2024-01-16T02:54:15;3.47;;;2.57;;
10825;SDS011;5466;55.898;14.094;2024-01-16T02:56:15;2.87;;;2.67;;
10825;SDS011;5466;55.898;14.094;2024-01-16T02:58:16;2.43;;;2.33;;
10825;SDS011;5466;55.898;14.094;2024-01-16T03:00:17;2.70;;;2.50;;
10825;SDS011;5466;55.898;14.094;2024-01-16T03:02:17;3.13;;;2.83;;
10825;SDS011;5466;55.898;14.094;2024-01-16T03:04:18;3.33;;;2.30;;
10825;SDS011;5466;55.898;14.094;2024-01-16T03:06:22;2.77;;;2.57;;
10825;SDS011;5466;55.898;14.094;2024-01-16T03:08:24;3.30;;;2.73;;
10825;SDS011;5466;55.898;14.094;2024-01-16T03:10:25;3.30;;;3.00;;
10825;SDS011;5466;55.898;14.094;2024-01-16T03:12:25;4.37;;;2.50;;
10825;SDS011;5466;55.898;14.094;2024-01-16T03:14:26;2.70;;;2.50;;
10825;SDS011;5466;55.898;14.094;2024-01-16T03:16:27;2.73;;;2.53;;
10825;SDS011;5466;55.898;14.094;2024-01-16T03:18:28;2.50;;;2.40;;
10825;SDS011;5466;55.898;14.094;2024-01-16T03:20:28;4.27;;;3.67;;
10825;SDS011;5466;55.898;14.094;2024-01-16T03:22:29;4.20;;;3.80;;
10825;SDS011;5466;55.898;14.094;2024-01-16T03:24:29;4.27;;;3.50;;
10825;SDS011;5466;55.898;14.094;2024-01-16T03:26:31;2.90;;;2.70;;
10825;SDS011;5466;55.898;14.094;2024-01-16T03:28:32;3.47;;;2.47;;
10825;SDS011;5466;55.898;14.094;2024-01-16T03:30:33;3.00;;;2.80;;
10825;SDS011;5466;55.898;14.094;2024-01-16T03:32:34;3.17;;;2.87;;
10825;SDS011;5466;55.898;14.094;2024-01-16T03:34:36;3.07;;;2.80;;
10825;SDS011;5466;55.898;14.094;2024-01-16T03:36:36;2.83;;;2.63;;
10825;SDS011;5466;55.898;14.094;2024-01-16T03:38:38;2.77;;;2.60;;
10825;SDS011;5466;55.898;14.094;2024-01-16T03:40:39;3.10;;;2.83;;
10825;SDS011;5466;55.898;14.094;2024-01-16T03:42:39;2.97;;;2.57;;
10825;SDS011;5466;55.898;14.094;2024-01-16T03:44:40;2.63;;;2.43;;
10825;SDS011;5466;55.898;14.094;2024-01-16T03:46:41;3.70;;;3.03;;
10825;SDS011;5466;55.898;14.094;2024-01-16T03:48:41;3.57;;;2.60;;
10825;SDS011;5466;55.898;14.094;2024-01-16T03:50:42;3.90;;;2.87;;
10825;SDS011;5466;55.898;14.094;2024-01-16T03:52:43;5.47;;;3.27;;
10825;SDS011;5466;55.898;14.094;2024-01-16T03:54:44;3.40;;;3.10;;
10825;SDS011;5466;55.898;14.094;2024-01-16T03:56:45;5.33;;;3.10;;
10825;SDS011;5466;55.898;14.094;2024-01-16T03:58:46;3.53;;;3.23;;
10825;SDS011;5466;55.898;14.094;2024-01-16T04:00:47;3.20;;;2.90;;
10825;SDS011;5466;55.898;14.094;2024-01-16T04:02:50;2.93;;;2.77;;
10825;SDS011;5466;55.898;14.094;2024-01-16T04:04:51;3.43;;;3.13;;
10825;SDS011;5466;55.898;14.094;2024-01-16T04:06:51;2.53;;;2.33;;
10825;SDS011;5466;55.898;14.094;2024-01-16T04:08:52;2.47;;;2.37;;
10825;SDS011;5466;55.898;14.094;2024-01-16T04:10:53;2.60;;;2.40;;
10825;SDS011;5466;55.898;14.094;2024-01-16T04:12:53;2.40;;;2.30;;
10825;SDS011;5466;55.898;14.094;2024-01-16T04:14:54;2.97;;;2.60;;
10825;SDS011;5466;55.898;14.094;2024-01-16T04:16:54;2.83;;;2.63;;
10825;SDS011;5466;55.898;14.094;2024-01-16T04:18:55;2.70;;;2.50;;
10825;SDS011;5466;55.898;14.094;2024-01-16T04:20:56;3.03;;;2.83;;
10825;SDS011;5466;55.898;14.094;2024-01-16T04:22:57;7.13;;;5.03;;
10825;SDS011;5466;55.898;14.094;2024-01-16T04:24:58;9.13;;;6.10;;
10825;SDS011;5466;55.898;14.094;2024-01-16T04:26:58;8.73;;;6.73;;
10825;SDS011;5466;55.898;14.094;2024-01-16T04:28:59;15.83;;;9.13;;
10825;SDS011;5466;55.898;14.094;2024-01-16T04:31:00;14.60;;;8.17;;
10825;SDS011;5466;55.898;14.094;2024-01-16T04:33:01;8.43;;;6.70;;
10825;SDS011;5466;55.898;14.094;2024-01-16T04:35:02;7.97;;;4.83;;
10825;SDS011;5466;55.898;14.094;2024-01-16T04:37:03;4.87;;;4.10;;
10825;SDS011;5466;55.898;14.094;2024-01-16T04:39:04;4.70;;;3.80;;
10825;SDS011;5466;55.898;14.094;2024-01-16T04:41:04;4.03;;;3.17;;
10825;SDS011;5466;55.898;14.094;2024-01-16T04:43:05;3.43;;;3.13;;
10825;SDS011;5466;55.898;14.094;2024-01-16T04:45:06;3.47;;;3.03;;
10825;SDS011;5466;55.898;14.094;2024-01-16T04:47:07;3.30;;;3.10;;
10825;SDS011;5466;55.898;14.094;2024-01-16T04:49:08;3.97;;;3.27;;
10825;SDS011;5466;55.898;14.094;2024-01-16T04:51:08;3.70;;;3.40;;
10825;SDS011;5466;55.898;14.094;2024-01-16T04:53:09;3.73;;;3.43;;
10825;SDS011;5466;55.898;14.094;2024-01-16T04:55:10;2.87;;;2.67;;
10825;SDS011;5466;55.898;14.094;2024-01-16T04:57:11;3.30;;;3.07;;
10825;SDS011;5466;55.898;14.094;2024-01-16T04:59:11;4.27;;;3.10;;
10825;SDS011;5466;55.898;14.094;2024-01-16T05:01:12;3.80;;;3.40;;
10825;SDS011;5466;55.898;14.094;2024-01-16T05:03:13;4.40;;;3.47;;
10825;SDS011;5466;55.898;14.094;2024-01-16T05:05:14;3.57;;;2.60;;
10825;SDS011;5466;55.898;14.094;2024-01-16T05:07:15;3.17;;;2.47;;
10825;SDS011;5466;55.898;14.094;2024-01-16T05:09:15;2.77;;;2.57;;
10825;SDS011;5466;55.898;14.094;2024-01-16T05:11:16;2.93;;;2.73;;
10825;SDS011;5466;55.898;14.094;2024-01-16T05:13:17;2.80;;;2.60;;
10825;SDS011;5466;55.898;14.094;2024-01-16T05:15:17;3.40;;;3.10;;
10825;SDS011;5466;55.898;14.094;2024-01-16T05:17:18;2.23;;;2.13;;
10825;SDS011;5466;55.898;14.094;2024-01-16T05:19:18;2.90;;;2.70;;
10825;SDS011;5466;55.898;14.094;2024-01-16T05:21:20;2.87;;;2.67;;
10825;SDS011;5466;55.898;14.094;2024-01-16T05:23:20;2.73;;;2.57;;
10825;SDS011;5466;55.898;14.094;2024-01-16T05:25:21;3.00;;;2.80;;
10825;SDS011;5466;55.898;14.094;2024-01-16T05:27:22;2.60;;;2.50;;
10825;SDS011;5466;55.898;14.094;2024-01-16T05:29:23;2.73;;;2.53;;
10825;SDS011;5466;55.898;14.094;2024-01-16T05:31:24;4.20;;;3.90;;
10825;SDS011;5466;55.898;14.094;2024-01-16T05:33:24;4.10;;;3.80;;
10825;SDS011;5466;55.898;14.094;2024-01-16T05:35:25;3.20;;;3.00;;
10825;SDS011;5466;55.898;14.094;2024-01-16T05:37:26;2.60;;;2.50;;
10825;SDS011;5466;55.898;14.094;2024-01-16T05:39:29;3.63;;;3.33;;
10825;SDS011;5466;55.898;14.094;2024-01-16T05:41:33;3.03;;;2.83;;
10825;SDS011;5466;55.898;14.094;2024-01-16T05:43:34;3.20;;;3.00;;
10825;SDS011;5466;55.898;14.094;2024-01-16T05:45:35;2.90;;;2.70;;
10825;SDS011;5466;55.898;14.094;2024-01-16T05:47:36;3.00;;;2.80;;
10825;SDS011;5466;55.898;14.094;2024-01-16T05:49:36;2.80;;;2.60;;
10825;SDS011;5466;55.898;14.094;2024-01-16T05:51:37;2.57;;;2.40;;
10825;SDS011;5466;55.898;14.094;2024-01-16T05:53:38;2.90;;;2.60;;
10825;SDS011;5466;55.898;14.094;2024-01-16T05:55:39;2.70;;;2.50;;
10825;SDS011;5466;55.898;14.094;2024-01-16T05:57:39;3.47;;;3.17;;
10825;SDS011;5466;55.898;14.094;2024-01-16T05:59:40;2.33;;;2.23;;
10825;SDS011;5466;55.898;14.094;2024-01-16T06:01:41;5.97;;;4.10;;
10825;SDS011;5466;55.898;14.094;2024-01-16T06:03:42;3.60;;;3.30;;
10825;SDS011;5466;55.898;14.094;2024-01-16T06:05:45;3.53;;;3.23;;
10825;SDS011;5466;55.898;14.094;2024-01-16T06:07:46;3.47;;;3.23;;
10825;SDS011;5466;55.898;14.094;2024-01-16T06:09:46;3.87;;;3.57;;
10825;SDS011;5466;55.898;14.094;2024-01-16T06:11:47;3.40;;;3.20;;
10825;SDS011;5466;55.898;14.094;2024-01-16T06:13:48;3.43;;;3.13;;
10825;SDS011;5466;55.898;14.094;2024-01-16T06:15:48;3.13;;;2.97;;
10825;SDS011;5466;55.898;14.094;2024-01-16T06:17:49;3.00;;;2.80;;
10825;SDS011;5466;55.898;14.094;2024-01-16T06:19:49;3.30;;;3.10;;
10825;SDS011;5466;55.898;14.094;2024-01-16T06:21:50;3.60;;;3.30;;
10825;SDS011;5466;55.898;14.094;2024-01-16T06:23:51;3.17;;;2.93;;
10825;SDS011;5466;55.898;14.094;2024-01-16T06:25:51;3.53;;;3.23;;
10825;SDS011;5466;55.898;14.094;2024-01-16T06:27:52;3.90;;;3.60;;
10825;SDS011;5466;55.898;14.094;2024-01-16T06:29:52;3.37;;;3.10;;
10825;SDS011;5466;55.898;14.094;2024-01-16T06:31:53;3.77;;;3.30;;
10825;SDS011;5466;55.898;14.094;2024-01-16T06:33:54;3.60;;;3.30;;
10825;SDS011;5466;55.898;14.094;2024-01-16T06:35:55;3.30;;;3.10;;
10825;SDS011;5466;55.898;14.094;2024-01-16T06:37:55;4.23;;;3.90;;
10825;SDS011;5466;55.898;14.094;2024-01-16T06:39:56;3.80;;;3.50;;
10825;SDS011;5466;55.898;14.094;2024-01-16T06:41:56;4.50;;;3.57;;
10825;SDS011;5466;55.898;14.094;2024-01-16T06:43:57;3.57;;;3.27;;
10825;SDS011;5466;55.898;14.094;2024-01-16T06:45:58;3.70;;;3.40;;
10825;SDS011;5466;55.898;14.094;2024-01-16T06:47:58;3.43;;;3.13;;
10825;SDS011;5466;55.898;14.094;2024-01-16T06:49:59;4.87;;;3.50;;
10825;SDS011;5466;55.898;14.094;2024-01-16T06:52:02;6.73;;;5.03;;
10825;SDS011;5466;55.898;14.094;2024-01-16T06:54:03;5.97;;;4.33;;
10825;SDS011;5466;55.898;14.094;2024-01-16T06:56:06;8.60;;;3.93;;
10825;SDS011;5466;55.898;14.094;2024-01-16T06:58:07;5.23;;;3.30;;
10825;SDS011;5466;55.898;14.094;2024-01-16T07:00:10;4.30;;;3.90;;
10825;SDS011;5466;55.898;14.094;2024-01-16T07:02:11;3.50;;;3.23;;
10825;SDS011;5466;55.898;14.094;2024-01-16T07:04:11;3.27;;;2.97;;
10825;SDS011;5466;55.898;14.094;2024-01-16T07:06:14;2.97;;;2.77;;
10825;SDS011;5466;55.898;14.094;2024-01-16T07:08:14;3.30;;;3.10;;
10825;SDS011;5466;55.898;14.094;2024-01-16T07:10:15;3.90;;;3.60;;
10825;SDS011;5466;55.898;14.094;2024-01-16T07:12:18;4.13;;;3.83;;
10825;SDS011;5466;55.898;14.094;2024-01-16T07:14:19;5.67;;;4.20;;
10825;SDS011;5466;55.898;14.094;2024-01-16T07:16:20;5.27;;;3.33;;
10825;SDS011;5466;55.898;14.094;2024-01-16T07:18:20;4.73;;;4.30;;
10825;SDS011;5466;55.898;14.094;2024-01-16T07:20:21;7.00;;;4.50;;
10825;SDS011;5466;55.898;14.094;2024-01-16T07:22:21;4.67;;;4.17;;
10825;SDS011;5466;55.898;14.094;2024-01-16T07:24:22;4.40;;;4.10;;
10825;SDS011;5466;55.898;14.094;2024-01-16T07:26:23;3.97;;;3.37;;
10825;SDS011;5466;55.898;14.094;2024-01-16T07:28:24;4.50;;;3.97;;
10825;SDS011;5466;55.898;14.094;2024-01-16T07:30:24;3.67;;;3.40;;
10825;SDS011;5466;55.898;14.094;2024-01-16T07:32:25;5.53;;;3.87;;
10825;SDS011;5466;55.898;14.094;2024-01-16T07:34:26;4.40;;;4.00;;
10825;SDS011;5466;55.898;14.094;2024-01-16T07:36:27;5.07;;;3.90;;
10825;SDS011;5466;55.898;14.094;2024-01-16T07:38:27;5.87;;;3.80;;
10825;SDS011;5466;55.898;14.094;2024-01-16T07:40:28;4.17;;;3.70;;
10825;SDS011;5466;55.898;14.094;2024-01-16T07:42:29;3.93;;;3.60;;
10825;SDS011;5466;55.898;14.094;2024-01-16T07:44:34;3.30;;;3.10;;
10825;SDS011;5466;55.898;14.094;2024-01-16T07:46:34;4.10;;;3.37;;
10825;SDS011;5466;55.898;14.094;2024-01-16T07:48:35;6.07;;;3.40;;
10825;SDS011;5466;55.898;14.094;2024-01-16T07:50:36;4.13;;;3.73;;
10825;SDS011;5466;55.898;14.094;2024-01-16T07:52:36;5.13;;;4.20;;
10825;SDS011;5466;55.898;14.094;2024-01-16T07:54:37;5.70;;;5.20;;
10825;SDS011;5466;55.898;14.094;2024-01-16T07:56:37;4.20;;;3.80;;
10825;SDS011;5466;55.898;14.094;2024-01-16T07:58:38;5.23;;;4.23;;
10825;SDS011;5466;55.898;14.094;2024-01-16T08:00:39;3.67;;;3.47;;
10825;SDS011;5466;55.898;14.094;2024-01-16T08:02:40;4.17;;;3.77;;
10825;SDS011;5466;55.898;14.094;2024-01-16T08:04:41;4.03;;;3.67;;
10825;SDS011;5466;55.898;14.094;2024-01-16T08:06:42;3.97;;;3.67;;
10825;SDS011;5466;55.898;14.094;2024-01-16T08:08:43;3.23;;;3.03;;
10825;SDS011;5466;55.898;14.094;2024-01-16T08:10:43;3.13;;;2.93;;
10825;SDS011;5466;55.898;14.094;2024-01-16T08:12:44;5.80;;;4.10;;
10825;SDS011;5466;55.898;14.094;2024-01-16T08:14:45;3.63;;;3.33;;
10825;SDS011;5466;55.898;14.094;2024-01-16T08:16:46;3.63;;;3.40;;
10825;SDS011;5466;55.898;14.094;2024-01-16T08:18:47;4.20;;;3.90;;
10825;SDS011;5466;55.898;14.094;2024-01-16T08:20:47;3.83;;;3.53;;
10825;SDS011;5466;55.898;14.094;2024-01-16T08:22:48;3.67;;;3.37;;
10825;SDS011;5466;55.898;14.094;2024-01-16T08:24:50;5.43;;;4.30;;
10825;SDS011;5466;55.898;14.094;2024-01-16T08:26:50;7.57;;;5.73;;
10825;SDS011;5466;55.898;14.094;2024-01-16T08:28:51;5.40;;;4.77;;
10825;SDS011;5466;55.898;14.094;2024-01-16T08:30:52;8.70;;;5.90;;
10825;SDS011;5466;55.898;14.094;2024-01-16T08:32:52;12.27;;;7.10;;
10825;SDS011;5466;55.898;14.094;2024-01-16T08:34:53;10.30;;;5.93;;
10825;SDS011;5466;55.898;14.094;2024-01-16T08:36:54;7.27;;;5.33;;
10825;SDS011;5466;55.898;14.094;2024-01-16T08:38:56;9.13;;;5.70;;
10825;SDS011;5466;55.898;14.094;2024-01-16T08:40:57;5.80;;;5.30;;
10825;SDS011;5466;55.898;14.094;2024-01-16T08:42:58;4.93;;;4.30;;
10825;SDS011;5466;55.898;14.094;2024-01-16T08:44:58;6.27;;;5.17;;
10825;SDS011;5466;55.898;14.094;2024-01-16T08:46:59;7.47;;;4.73;;
10825;SDS011;5466;55.898;14.094;2024-01-16T08:49:02;10.27;;;5.90;;
10825;SDS011;5466;55.898;14.094;2024-01-16T08:51:04;10.37;;;7.40;;
10825;SDS011;5466;55.898;14.094;2024-01-16T08:53:07;11.47;;;6.47;;
10825;SDS011;5466;55.898;14.094;2024-01-16T08:55:08;14.10;;;7.57;;
10825;SDS011;5466;55.898;14.094;2024-01-16T08:57:09;14.67;;;9.23;;
10825;SDS011;5466;55.898;14.094;2024-01-16T08:59:10;14.03;;;9.27;;
10825;SDS011;5466;55.898;14.094;2024-01-16T09:01:11;12.53;;;9.17;;
10825;SDS011;5466;55.898;14.094;2024-01-16T09:03:11;18.10;;;12.30;;
10825;SDS011;5466;55.898;14.094;2024-01-16T09:05:12;20.67;;;12.00;;
10825;SDS011;5466;55.898;14.094;2024-01-16T09:07:14;23.53;;;14.53;;
10825;SDS011;5466;55.898;14.094;2024-01-16T09:09:15;23.10;;;15.13;;
10825;SDS011;5466;55.898;14.094;2024-01-16T09:11:16;16.10;;;10.93;;
10825;SDS011;5466;55.898;14.094;2024-01-16T09:13:17;8.57;;;6.83;;
10825;SDS011;5466;55.898;14.094;2024-01-16T09:15:17;11.83;;;7.83;;
10825;SDS011;5466;55.898;14.094;2024-01-16T09:17:18;7.63;;;5.70;;
10825;SDS011;5466;55.898;14.094;2024-01-16T09:19:19;7.57;;;5.30;;
10825;SDS011;5466;55.898;14.094;2024-01-16T09:21:19;8.67;;;6.00;;
10825;SDS011;5466;55.898;14.094;2024-01-16T09:23:20;6.00;;;4.10;;
10825;SDS011;5466;55.898;14.094;2024-01-16T09:25:21;5.67;;;4.67;;
10825;SDS011;5466;55.898;14.094;2024-01-16T09:27:24;4.83;;;4.27;;
10825;SDS011;5466;55.898;14.094;2024-01-16T09:29:25;5.97;;;5.30;;
10825;SDS011;5466;55.898;14.094;2024-01-16T09:31:26;10.47;;;7.90;;
10825;SDS011;5466;55.898;14.094;2024-01-16T09:33:26;7.10;;;6.27;;
10825;SDS011;5466;55.898;14.094;2024-01-16T09:35:27;7.40;;;6.00;;
10825;SDS011;5466;55.898;14.094;2024-01-16T09:37:28;8.37;;;6.53;;
10825;SDS011;5466;55.898;14.094;2024-01-16T09:39:28;7.47;;;6.27;;
10825;SDS011;5466;55.898;14.094;2024-01-16T09:41:34;9.60;;;6.90;;
10825;SDS011;5466;55.898;14.094;2024-01-16T09:43:35;6.83;;;5.70;;
10825;SDS011;5466;55.898;14.094;2024-01-16T09:45:37;6.70;;;4.60;;
10825;SDS011;5466;55.898;14.094;2024-01-16T09:47:38;5.27;;;4.53;;
10825;SDS011;5466;55.898;14.094;2024-01-16T09:49:39;4.97;;;4.47;;
10825;SDS011;5466;55.898;14.094;2024-01-16T09:51:40;3.93;;;3.60;;
10825;SDS011;5466;55.898;14.094;2024-01-16T09:53:43;4.20;;;3.80;;
10825;SDS011;5466;55.898;14.094;2024-01-16T09:55:44;4.57;;;3.50;;
10825;SDS011;5466;55.898;14.094;2024-01-16T09:57:45;3.93;;;3.63;;
10825;SDS011;5466;55.898;14.094;2024-01-16T09:59:48;4.03;;;3.33;;
10825;SDS011;5466;55.898;14.094;2024-01-16T10:01:49;3.00;;;2.73;;
10825;SDS011;5466;55.898;14.094;2024-01-16T10:03:50;6.87;;;3.60;;
10825;SDS011;5466;55.898;14.094;2024-01-16T10:05:51;3.53;;;3.23;;
10825;SDS011;5466;55.898;14.094;2024-01-16T10:07:52;3.33;;;3.03;;
10825;SDS011;5466;55.898;14.094;2024-01-16T10:09:55;7.73;;;3.57;;
10825;SDS011;5466;55.898;14.094;2024-01-16T10:11:57;3.43;;;3.20;;
10825;SDS011;5466;55.898;14.094;2024-01-16T10:14:00;3.80;;;3.47;;
10825;SDS011;5466;55.898;14.094;2024-01-16T10:16:01;3.50;;;3.20;;
10825;SDS011;5466;55.898;14.094;2024-01-16T10:18:02;3.77;;;3.40;;
10825;SDS011;5466;55.898;14.094;2024-01-16T10:20:02;3.50;;;3.20;;
10825;SDS011;5466;55.898;14.094;2024-01-16T10:22:04;3.50;;;3.20;;
10825;SDS011;5466;55.898;14.094;2024-01-16T10:24:12;3.77;;;3.27;;
10825;SDS011;5466;55.898;14.094;2024-01-16T10:26:13;3.60;;;3.30;;
10825;SDS011;5466;55.898;14.094;2024-01-16T10:28:19;2.90;;;2.70;;
10825;SDS011;5466;55.898;14.094;2024-01-16T10:30:21;4.50;;;3.67;;
10825;SDS011;5466;55.898;14.094;2024-01-16T10:32:41;3.63;;;2.93;;
10825;SDS011;5466;55.898;14.094;2024-01-16T10:34:42;4.47;;;3.20;;
10825;SDS011;5466;55.898;14.094;2024-01-16T10:36:43;4.47;;;2.77;;
10825;SDS011;5466;55.898;14.094;2024-01-16T10:38:44;3.40;;;3.10;;
10825;SDS011;5466;55.898;14.094;2024-01-16T10:40:45;5.53;;;3.33;;
10825;SDS011;5466;55.898;14.094;2024-01-16T10:42:46;5.70;;;3.60;;
10825;SDS011;5466;55.898;14.094;2024-01-16T10:45:04;5.90;;;3.37;;
10825;SDS011;5466;55.898;14.094;2024-01-16T10:47:11;4.07;;;3.67;;
10825;SDS011;5466;55.898;14.094;2024-01-16T10:49:16;4.43;;;4.03;;
10825;SDS011;5466;55.898;14.094;2024-01-16T10:51:17;5.03;;;3.60;;
10825;SDS011;5466;55.898;14.094;2024-01-16T10:53:17;3.97;;;3.57;;
10825;SDS011;5466;55.898;14.094;2024-01-16T10:55:22;6.03;;;3.80;;
10825;SDS011;5466;55.898;14.094;2024-01-16T10:57:24;5.80;;;3.40;;
10825;SDS011;5466;55.898;14.094;2024-01-16T10:59:25;7.07;;;3.50;;
10825;SDS011;5466;55.898;14.094;2024-01-16T11:01:43;8.53;;;4.03;;
10825;SDS011;5466;55.898;14.094;2024-01-16T11:03:49;4.90;;;3.60;;
10825;SDS011;5466;55.898;14.094;2024-01-16T11:05:50;4.37;;;3.03;;
10825;SDS011;5466;55.898;14.094;2024-01-16T11:07:53;3.73;;;3.43;;
10825;SDS011;5466;55.898;14.094;2024-01-16T11:09:55;3.90;;;3.33;;
10825;SDS011;5466;55.898;14.094;2024-01-16T11:11:57;3.70;;;3.30;;
10825;SDS011;5466;55.898;14.094;2024-01-16T11:13:58;5.83;;;3.60;;
10825;SDS011;5466;55.898;14.094;2024-01-16T11:15:59;6.47;;;3.67;;
10825;SDS011;5466;55.898;14.094;2024-01-16T11:18:01;4.00;;;3.00;;
10825;SDS011;5466;55.898;14.094;2024-01-16T11:20:04;4.07;;;3.53;;
10825;SDS011;5466;55.898;14.094;2024-01-16T11:22:10;5.23;;;3.30;;
10825;SDS011;5466;55.898;14.094;2024-01-16T11:24:11;4.17;;;3.67;;
10825;SDS011;5466;55.898;14.094;2024-01-16T11:26:31;5.80;;;3.33;;
10825;SDS011;5466;55.898;14.094;2024-01-16T11:28:36;3.37;;;2.53;;
10825;SDS011;5466;55.898;14.094;2024-01-16T11:30:37;7.93;;;3.10;;
10825;SDS011;5466;55.898;14.094;2024-01-16T11:32:38;6.23;;;3.30;;
10825;SDS011;5466;55.898;14.094;2024-01-16T11:36:53;3.50;;;2.87;;
10825;SDS011;5466;55.898;14.094;2024-01-16T11:38:57;3.30;;;3.00;;
10825;SDS011;5466;55.898;14.094;2024-01-16T11:40:58;3.30;;;3.00;;
10825;SDS011;5466;55.898;14.094;2024-01-16T11:42:59;3.17;;;2.77;;
10825;SDS011;5466;55.898;14.094;2024-01-16T11:47:32;3.90;;;3.13;;
10825;SDS011;5466;55.898;14.094;2024-01-16T11:49:33;3.53;;;3.20;;
10825;SDS011;5466;55.898;14.094;2024-01-16T11:51:33;4.33;;;3.20;;
10825;SDS011;5466;55.898;14.094;2024-01-16T11:53:41;5.13;;;2.80;;
10825;SDS011;5466;55.898;14.094;2024-01-16T11:55:47;5.63;;;3.30;;
10825;SDS011;5466;55.898;14.094;2024-01-16T12:00:33;4.50;;;2.70;;
10825;SDS011;5466;55.898;14.094;2024-01-16T12:04:53;3.80;;;2.90;;
10825;SDS011;5466;55.898;14.094;2024-01-16T12:07:03;3.43;;;3.03;;
10825;SDS011;5466;55.898;14.094;2024-01-16T12:09:16;3.80;;;3.10;;
10825;SDS011;5466;55.898;14.094;2024-01-16T12:11:20;3.93;;;2.30;;
10825;SDS011;5466;55.898;14.094;2024-01-16T12:13:20;5.10;;;2.27;;
10825;SDS011;5466;55.898;14.094;2024-01-16T12:15:21;2.67;;;2.20;;
10825;SDS011;5466;55.898;14.094;2024-01-16T12:17:22;2.90;;;2.50;;
10825;SDS011;5466;55.898;14.094;2024-01-16T12:19:23;3.00;;;2.10;;
10825;SDS011;5466;55.898;14.094;2024-01-16T12:21:23;2.30;;;2.10;;